createdAt,value
2018-11-26T00:00:36.371Z,108.17
2018-11-26T00:03:08.560Z,114.10
2018-11-26T00:05:38.315Z,117.00
2018-11-26T00:08:13.558Z,102.97
2018-11-26T00:10:53.867Z,106.90
2018-11-26T00:13:23.251Z,106.57
2018-11-26T00:15:52.260Z,99.80
2018-11-26T00:18:21.276Z,96.43
2018-11-26T00:20:50.308Z,101.70
2018-11-26T00:23:19.340Z,104.17
2018-11-26T00:25:48.436Z,103.87
2018-11-26T00:28:17.522Z,101.27
2018-11-26T00:30:46.540Z,93.57
2018-11-26T00:33:15.635Z,91.03
2018-11-26T00:35:44.695Z,95.53
2018-11-26T00:38:13.696Z,92.07
2018-11-26T00:40:42.948Z,94.20
2018-11-26T00:43:12.224Z,91.67
2018-11-26T00:45:41.285Z,93.77
2018-11-26T00:48:10.308Z,84.70
2018-11-26T00:50:39.352Z,89.07
2018-11-26T00:53:08.368Z,77.87
2018-11-26T00:55:37.426Z,87.60
2018-11-26T00:58:06.455Z,88.50
2018-11-26T01:00:35.496Z,92.77
2018-11-26T01:03:04.864Z,97.13
2018-11-26T01:05:38.225Z,102.33
2018-11-26T01:08:07.556Z,98.47
2018-11-26T01:10:36.632Z,101.50
2018-11-26T01:13:06.402Z,93.83
2018-11-26T01:15:35.482Z,96.27
2018-11-26T01:18:04.864Z,91.43
2018-11-26T01:20:33.950Z,98.03
2018-11-26T01:23:02.968Z,103.83
2018-11-26T01:25:32.035Z,94.43
2018-11-26T01:28:01.123Z,98.73
2018-11-26T01:30:30.292Z,87.47
2018-11-26T01:32:59.788Z,108.63
2018-11-26T01:35:28.828Z,105.43
2018-11-26T01:37:57.856Z,103.40
2018-11-26T01:40:32.702Z,95.50
2018-11-26T01:43:01.752Z,102.57
2018-11-26T01:45:30.797Z,97.70
2018-11-26T01:47:59.856Z,93.87
2018-11-26T01:50:28.860Z,96.00
2018-11-26T01:52:57.923Z,92.07
2018-11-26T01:55:26.967Z,86.30
2018-11-26T01:57:55.989Z,85.53
2018-11-26T02:00:26.478Z,79.93
2018-11-26T02:02:55.764Z,74.53
2018-11-26T02:05:24.762Z,80.03
2018-11-26T02:07:53.812Z,77.40
2018-11-26T02:10:23.064Z,90.97
2018-11-26T02:12:52.275Z,82.10
2018-11-26T02:15:35.413Z,80.17
2018-11-26T02:18:04.507Z,83.83
2018-11-26T02:20:33.549Z,82.33
2018-11-26T02:23:04.000Z,93.97
2018-11-26T02:25:33.011Z,98.87
2018-11-26T02:28:02.100Z,88.57
2018-11-26T02:30:31.220Z,95.37
2018-11-26T02:33:00.255Z,93.83
2018-11-26T02:35:29.322Z,93.63
2018-11-26T02:37:58.384Z,93.93
2018-11-26T02:40:28.540Z,87.20
2018-11-26T02:42:57.562Z,80.73
2018-11-26T02:45:27.773Z,74.87
2018-11-26T02:47:57.017Z,68.33
2018-11-26T02:50:26.081Z,68.03
2018-11-26T02:52:55.106Z,69.63
2018-11-26T02:55:24.190Z,70.33
2018-11-26T02:57:53.353Z,62.53
2018-11-26T03:00:22.478Z,69.80
2018-11-26T03:02:51.459Z,71.07
2018-11-26T03:05:26.309Z,66.80
2018-11-26T03:07:55.371Z,71.07
2018-11-26T03:10:24.455Z,70.20
2018-11-26T03:12:53.572Z,65.70
2018-11-26T03:15:22.607Z,69.67
2018-11-26T03:17:51.674Z,74.27
2018-11-26T03:20:20.708Z,72.83
2018-11-26T03:22:49.727Z,74.73
2018-11-26T03:25:18.779Z,78.13
2018-11-26T03:27:47.846Z,76.47
2018-11-26T03:30:19.085Z,76.77
2018-11-26T03:32:48.109Z,81.30
2018-11-26T03:35:17.641Z,75.37
2018-11-26T03:37:46.663Z,70.60
2018-11-26T03:40:15.962Z,70.80
2018-11-26T03:42:45.033Z,75.77
2018-11-26T03:45:15.149Z,78.77
2018-11-26T03:47:44.284Z,71.90
2018-11-26T03:50:14.157Z,68.17
2018-11-26T03:52:44.106Z,68.33
2018-11-26T03:55:13.691Z,70.07
2018-11-26T03:57:42.689Z,62.93
2018-11-26T04:00:13.986Z,63.23
2018-11-26T04:02:43.104Z,63.30
2018-11-26T04:05:12.721Z,63.20
2018-11-26T04:07:41.940Z,65.03
2018-11-26T04:10:12.992Z,65.83
2018-11-26T04:12:42.156Z,65.97
2018-11-26T04:15:15.235Z,66.30
2018-11-26T04:17:44.246Z,70.27
2018-11-26T04:20:13.273Z,70.90
2018-11-26T04:22:42.300Z,60.70
2018-11-26T04:25:11.321Z,57.93
2018-11-26T04:27:40.368Z,57.00
2018-11-26T04:30:11.004Z,56.67
2018-11-26T04:32:40.970Z,57.40
2018-11-26T04:35:10.344Z,53.70
2018-11-26T04:37:39.445Z,55.77
2018-11-26T04:40:09.711Z,49.83
2018-11-26T04:42:38.794Z,47.73
2018-11-26T04:45:09.240Z,49.13
2018-11-26T04:47:38.383Z,56.80
2018-11-26T04:50:09.310Z,52.03
2018-11-26T04:52:38.604Z,59.10
2018-11-26T04:55:08.861Z,49.67
2018-11-26T04:57:42.164Z,54.97
2018-11-26T05:00:12.795Z,55.57
2018-11-26T05:02:41.855Z,48.87
2018-11-26T05:05:11.980Z,48.70
2018-11-26T05:07:41.093Z,60.03
2018-11-26T05:10:12.270Z,52.23
2018-11-26T05:12:41.744Z,54.13
2018-11-26T05:15:11.909Z,50.73
2018-11-26T05:17:40.995Z,66.47
2018-11-26T05:20:12.263Z,60.90
2018-11-26T05:22:41.355Z,66.83
2018-11-26T05:25:11.056Z,63.57
2018-11-26T05:27:40.195Z,65.03
2018-11-26T05:30:11.363Z,64.67
2018-11-26T05:32:40.660Z,59.40
2018-11-26T05:35:10.882Z,63.13
2018-11-26T05:37:39.892Z,63.53
2018-11-26T05:40:14.971Z,53.50
2018-11-26T05:42:44.175Z,58.03
2018-11-26T05:45:15.006Z,56.97
2018-11-26T05:47:44.100Z,52.43
2018-11-26T05:50:14.460Z,50.33
2018-11-26T05:52:43.530Z,47.47
2018-11-26T05:55:13.849Z,53.33
2018-11-26T05:57:42.989Z,49.37
2018-11-26T06:00:23.252Z,53.43
2018-11-26T06:02:52.316Z,49.90
2018-11-26T06:05:21.371Z,48.07
2018-11-26T06:07:50.449Z,42.27
2018-11-26T06:10:19.516Z,41.23
2018-11-26T06:12:48.567Z,39.93
2018-11-26T06:15:17.643Z,46.53
2018-11-26T06:17:46.709Z,43.20
2018-11-26T06:20:15.770Z,42.77
2018-11-26T06:22:46.015Z,40.83
2018-11-26T06:25:16.494Z,41.93
2018-11-26T06:27:45.567Z,43.33
2018-11-26T06:30:15.791Z,39.80
2018-11-26T06:32:44.984Z,41.03
2018-11-26T06:35:16.113Z,41.73
2018-11-26T06:37:45.210Z,46.60
2018-11-26T06:40:14.767Z,41.00
2018-11-26T06:42:43.828Z,43.47
2018-11-26T06:45:15.017Z,44.97
2018-11-26T06:47:44.103Z,44.10
2018-11-26T06:50:16.001Z,48.47
2018-11-26T06:52:45.430Z,43.33
2018-11-26T06:55:15.823Z,49.63
2018-11-26T06:57:44.863Z,49.00
2018-11-26T07:00:17.191Z,51.20
2018-11-26T07:02:46.577Z,56.07
2018-11-26T07:05:20.897Z,52.07
2018-11-26T07:07:49.984Z,48.17
2018-11-26T07:10:19.957Z,50.77
2018-11-26T07:12:49.034Z,49.77
2018-11-26T07:15:19.821Z,51.97
2018-11-26T07:17:48.898Z,46.20
2018-11-26T07:20:18.796Z,56.83
2018-11-26T07:22:47.878Z,57.37
2018-11-26T07:25:18.452Z,52.03
2018-11-26T07:27:48.842Z,53.93
2018-11-26T07:30:19.232Z,49.77
2018-11-26T07:32:48.254Z,51.13
2018-11-26T07:35:17.838Z,60.03
2018-11-26T07:37:46.933Z,53.37
2018-11-26T07:40:21.959Z,52.53
2018-11-26T07:42:58.113Z,61.33
2018-11-26T07:45:29.290Z,50.40
2018-11-26T07:47:58.495Z,49.47
2018-11-26T07:50:27.532Z,54.40
2018-11-26T07:52:56.604Z,59.33
2018-11-26T07:55:25.686Z,51.03
2018-11-26T07:57:54.851Z,53.80
2018-11-26T08:00:23.960Z,46.60
2018-11-26T08:02:53.084Z,43.70
2018-11-26T08:05:23.171Z,42.77
2018-11-26T08:07:52.293Z,43.57
2018-11-26T08:10:23.733Z,40.97
2018-11-26T08:12:53.725Z,35.80
2018-11-26T08:15:24.765Z,36.57
2018-11-26T08:17:53.923Z,34.23
2018-11-26T08:20:23.032Z,33.00
2018-11-26T08:22:52.102Z,35.17
2018-11-26T08:25:23.092Z,32.87
2018-11-26T08:27:52.532Z,36.87
2018-11-26T08:30:23.859Z,34.33
2018-11-26T08:32:55.100Z,33.93
2018-11-26T08:35:24.173Z,32.90
2018-11-26T08:37:58.557Z,30.47
2018-11-26T08:40:29.978Z,35.47
2018-11-26T08:43:12.186Z,37.73
2018-11-26T08:45:47.501Z,30.73
2018-11-26T08:48:21.988Z,30.07
2018-11-26T08:50:51.110Z,36.23
2018-11-26T08:53:20.181Z,31.03
2018-11-26T08:55:49.218Z,30.30
2018-11-26T08:58:18.268Z,33.30
2018-11-26T09:00:47.562Z,37.40
2018-11-26T09:03:20.843Z,29.87
2018-11-26T09:06:00.523Z,34.17
2018-11-26T09:08:30.825Z,35.50
2018-11-26T09:11:00.681Z,31.87
2018-11-26T09:13:29.771Z,33.53
2018-11-26T09:15:59.004Z,34.67
2018-11-26T09:18:28.288Z,35.50
2018-11-26T09:20:57.295Z,37.07
2018-11-26T09:23:26.357Z,34.77
2018-11-26T09:25:55.894Z,35.33
2018-11-26T09:28:25.141Z,38.43
2018-11-26T09:30:54.189Z,39.43
2018-11-26T09:33:23.205Z,35.70
2018-11-26T09:35:52.353Z,35.33
2018-11-26T09:38:21.386Z,34.53
2018-11-26T09:40:50.464Z,41.83
2018-11-26T09:43:19.520Z,33.40
2018-11-26T09:45:48.521Z,35.43
2018-11-26T09:48:17.625Z,35.23
2018-11-26T09:50:46.706Z,35.30
2018-11-26T09:53:15.837Z,36.83
2018-11-26T09:55:44.909Z,32.67
2018-11-26T09:58:13.938Z,32.80
2018-11-26T10:00:43.022Z,30.53
2018-11-26T10:03:12.346Z,33.03
2018-11-26T10:05:41.405Z,32.50
2018-11-26T10:08:10.482Z,32.13
2018-11-26T10:10:39.563Z,29.53
2018-11-26T10:13:08.617Z,32.27
2018-11-26T10:15:37.627Z,30.60
2018-11-26T10:18:06.660Z,30.13
2018-11-26T10:20:35.921Z,26.87
2018-11-26T10:23:05.797Z,27.77
2018-11-26T10:25:34.800Z,28.73
2018-11-26T10:28:03.871Z,25.13
2018-11-26T10:30:32.968Z,28.40
2018-11-26T10:33:02.401Z,27.57
2018-11-26T10:35:31.618Z,27.67
2018-11-26T10:38:00.685Z,28.53
2018-11-26T10:40:29.773Z,26.20
2018-11-26T10:42:58.829Z,27.77
2018-11-26T10:45:27.982Z,31.77
2018-11-26T10:47:57.038Z,28.00
2018-11-26T10:50:26.873Z,28.13
2018-11-26T10:52:59.612Z,31.47
2018-11-26T10:55:33.176Z,26.87
2018-11-26T10:58:02.561Z,25.00
2018-11-26T11:00:37.112Z,24.63
2018-11-26T11:03:06.413Z,26.77
2018-11-26T11:05:36.486Z,24.17
2018-11-26T11:08:06.772Z,25.90
2018-11-26T11:10:36.021Z,24.70
2018-11-26T11:13:05.653Z,25.50
2018-11-26T11:15:35.146Z,26.37
2018-11-26T11:18:04.294Z,28.83
2018-11-26T11:20:33.493Z,24.00
2018-11-26T11:23:02.565Z,24.63
2018-11-26T11:25:31.711Z,25.40
2018-11-26T11:28:00.812Z,29.50
2018-11-26T11:30:30.799Z,30.00
2018-11-26T11:35:29.030Z,26.17
2018-11-26T11:37:58.046Z,25.60
2018-11-26T11:40:31.052Z,27.13
2018-11-26T11:43:00.999Z,28.43
2018-11-26T11:45:31.569Z,23.40
2018-11-26T11:48:00.756Z,29.97
2018-11-26T11:50:29.857Z,26.00
2018-11-26T11:52:59.259Z,29.43
2018-11-26T11:55:28.354Z,28.00
2018-11-26T11:57:57.665Z,30.47
2018-11-26T12:00:46.401Z,28.57
2018-11-26T12:03:17.481Z,31.37
2018-11-26T12:05:49.183Z,28.37
2018-11-26T12:08:18.836Z,26.10
2018-11-26T12:10:47.854Z,27.60
2018-11-26T12:13:16.968Z,27.50
2018-11-26T12:15:48.751Z,26.63
2018-11-26T12:18:17.871Z,26.40
2018-11-26T12:20:47.157Z,26.67
2018-11-26T12:23:16.207Z,25.03
2018-11-26T12:25:45.283Z,28.80
2018-11-26T12:28:14.331Z,25.70
2018-11-26T12:30:48.227Z,29.43
2018-11-26T12:33:17.252Z,25.20
2018-11-26T12:35:46.350Z,28.47
2018-11-26T12:38:15.476Z,31.67
2018-11-26T12:40:45.075Z,24.37
2018-11-26T12:43:14.180Z,27.00
2018-11-26T12:45:43.228Z,25.87
2018-11-26T12:48:12.221Z,26.07
2018-11-26T12:50:41.501Z,25.03
2018-11-26T12:53:10.932Z,27.23
2018-11-26T12:55:40.053Z,28.27
2018-11-26T12:58:09.442Z,29.27
2018-11-26T13:00:38.700Z,27.77
2018-11-26T13:03:09.514Z,28.63
2018-11-26T13:05:38.538Z,27.80
2018-11-26T13:08:08.408Z,24.27
2018-11-26T13:10:38.144Z,27.00
2018-11-26T13:13:08.558Z,28.60
2018-11-26T13:15:37.598Z,27.63
2018-11-26T13:18:07.119Z,23.73
2018-11-26T13:20:36.465Z,26.40
2018-11-26T13:23:06.899Z,26.57
2018-11-26T13:25:41.645Z,30.80
2018-11-26T13:28:07.488Z,26.23
2018-11-26T13:30:39.971Z,29.50
2018-11-26T13:33:10.701Z,26.23
2018-11-26T13:35:39.898Z,30.27
2018-11-26T13:38:09.391Z,24.67
2018-11-26T13:40:38.435Z,26.17
2018-11-26T13:43:09.741Z,26.67
2018-11-26T13:45:42.145Z,25.97
2018-11-26T13:48:12.662Z,30.03
2018-11-26T13:50:48.589Z,25.13
2018-11-26T13:53:17.606Z,24.53
2018-11-26T13:55:46.683Z,25.43
2018-11-26T13:58:15.750Z,26.93
2018-11-26T14:00:44.827Z,27.23
2018-11-26T14:03:13.878Z,25.90
2018-11-26T14:05:43.032Z,25.83
2018-11-26T14:08:12.227Z,28.93
2018-11-26T14:10:41.381Z,27.77
2018-11-26T14:13:14.786Z,27.97
2018-11-26T14:15:43.912Z,26.77
2018-11-26T14:18:12.961Z,22.33
2018-11-26T14:20:42.369Z,34.30
2018-11-26T14:23:11.778Z,23.33
2018-11-26T14:25:40.913Z,23.27
2018-11-26T14:28:10.010Z,24.37
2018-11-26T14:30:39.081Z,28.70
2018-11-26T14:33:08.119Z,22.60
2018-11-26T14:35:37.192Z,21.93
2018-11-26T14:38:08.110Z,25.43
2018-11-26T14:40:40.870Z,21.00
2018-11-26T14:43:09.883Z,22.30
2018-11-26T14:45:38.951Z,23.83
2018-11-26T14:48:08.069Z,22.73
2018-11-26T14:50:37.201Z,25.00
2018-11-26T14:53:08.011Z,20.70
2018-11-26T14:55:38.119Z,23.67
2018-11-26T14:58:07.523Z,22.10
2018-11-26T15:00:36.651Z,22.67
2018-11-26T15:03:06.249Z,22.00
2018-11-26T15:05:35.450Z,23.97
2018-11-26T15:08:04.494Z,22.87
2018-11-26T15:10:33.572Z,20.67
2018-11-26T15:13:02.733Z,24.63
2018-11-26T15:15:31.803Z,24.40
2018-11-26T15:18:00.894Z,21.90
2018-11-26T15:20:30.921Z,26.53
2018-11-26T15:23:00.708Z,21.90
2018-11-26T15:25:32.950Z,21.83
2018-11-26T15:28:07.134Z,22.80
2018-11-26T15:30:36.318Z,20.93
2018-11-26T15:33:05.712Z,21.77
2018-11-26T15:35:34.930Z,19.37
2018-11-26T15:38:04.335Z,23.80
2018-11-26T15:40:33.486Z,20.03
2018-11-26T15:43:02.570Z,23.63
2018-11-26T15:45:31.664Z,22.20
2018-11-26T15:48:02.217Z,26.00
2018-11-26T15:50:31.359Z,24.13
2018-11-26T15:53:00.705Z,23.37
2018-11-26T15:55:29.758Z,26.40
2018-11-26T15:57:58.859Z,27.50
2018-11-26T16:00:27.886Z,25.03
2018-11-26T16:02:56.934Z,26.47
2018-11-26T16:05:27.162Z,28.20
2018-11-26T16:07:57.763Z,27.03
2018-11-26T16:10:26.786Z,27.30
2018-11-26T16:12:57.171Z,25.23
2018-11-26T16:15:35.967Z,26.53
2018-11-26T16:18:07.841Z,27.77
2018-11-26T16:20:36.868Z,26.63
2018-11-26T16:23:07.722Z,28.70
2018-11-26T16:25:37.638Z,28.03
2018-11-26T16:28:06.878Z,29.07
2018-11-26T16:30:36.010Z,28.00
2018-11-26T16:33:05.667Z,30.43
2018-11-26T16:35:34.826Z,28.33
2018-11-26T16:38:04.009Z,31.10
2018-11-26T16:40:33.053Z,36.20
2018-11-26T16:43:02.097Z,29.10
2018-11-26T16:45:31.128Z,29.00
2018-11-26T16:48:00.190Z,34.93
2018-11-26T16:50:30.516Z,35.70
2018-11-26T16:52:59.579Z,34.73
2018-11-26T16:55:28.645Z,32.57
2018-11-26T16:57:57.695Z,33.70
2018-11-26T17:00:28.165Z,31.30
2018-11-26T17:02:59.541Z,35.97
2018-11-26T17:05:33.006Z,29.17
2018-11-26T17:08:02.073Z,33.33
2018-11-26T17:10:31.142Z,30.27
2018-11-26T17:13:00.779Z,32.80
2018-11-26T17:15:29.895Z,29.73
2018-11-26T17:17:58.924Z,32.47
2018-11-26T17:20:28.093Z,35.80
2018-11-26T17:22:57.129Z,38.80
2018-11-26T17:25:26.173Z,31.07
2018-11-26T17:27:55.234Z,34.63
2018-11-26T17:30:25.919Z,35.10
2018-11-26T17:33:00.301Z,31.77
2018-11-26T17:35:30.849Z,37.50
2018-11-26T17:37:59.947Z,36.30
2018-11-26T17:40:29.052Z,31.77
2018-11-26T17:42:58.246Z,27.63
2018-11-26T17:45:27.468Z,28.80
2018-11-26T17:47:58.009Z,23.97
2018-11-26T17:50:30.684Z,24.10
2018-11-26T17:52:59.726Z,26.03
2018-11-26T17:55:28.797Z,24.20
2018-11-26T17:57:57.976Z,24.47
2018-11-26T18:00:28.823Z,23.63
2018-11-26T18:02:57.948Z,19.33
2018-11-26T18:05:28.999Z,21.63
2018-11-26T18:08:00.715Z,21.00
2018-11-26T18:10:29.753Z,19.57
2018-11-26T18:12:58.909Z,21.83
2018-11-26T18:15:27.959Z,21.30
2018-11-26T18:17:57.304Z,16.83
2018-11-26T18:20:26.439Z,17.80
2018-11-26T18:22:55.726Z,19.83
2018-11-26T18:25:25.329Z,21.27
2018-11-26T18:28:03.397Z,19.70
2018-11-26T18:30:35.529Z,23.93
2018-11-26T18:33:04.990Z,22.10
2018-11-26T18:35:34.124Z,17.83
2018-11-26T18:38:03.269Z,19.87
2018-11-26T18:40:32.351Z,21.63
2018-11-26T18:43:01.429Z,19.70
2018-11-26T18:45:30.588Z,20.10
2018-11-26T18:47:59.674Z,21.53
2018-11-26T18:50:28.930Z,21.73
2018-11-26T18:52:57.972Z,18.50
2018-11-26T18:55:27.007Z,21.90
2018-11-26T18:57:56.564Z,18.03
2018-11-26T19:00:29.179Z,17.97
2018-11-26T19:02:58.887Z,19.10
2018-11-26T19:05:27.876Z,17.00
2018-11-26T19:07:56.902Z,17.67
2018-11-26T19:10:30.730Z,17.27
2018-11-26T19:13:01.847Z,20.43
2018-11-26T19:15:32.988Z,18.57
2018-11-26T19:18:13.845Z,16.73
2018-11-26T19:20:43.282Z,17.97
2018-11-26T19:23:12.333Z,17.83
2018-11-26T19:25:41.416Z,17.50
2018-11-26T19:28:10.479Z,19.17
2018-11-26T19:30:39.557Z,20.60
2018-11-26T19:33:09.813Z,18.40
2018-11-26T19:35:38.950Z,18.30
2018-11-26T19:38:08.575Z,18.67
2018-11-26T19:40:39.188Z,19.20
2018-11-26T19:43:08.826Z,18.80
2018-11-26T19:45:38.310Z,19.57
2018-11-26T19:48:08.412Z,19.70
2018-11-26T19:50:37.781Z,17.53
2018-11-26T19:53:10.933Z,16.77
2018-11-26T19:55:41.145Z,15.30
2018-11-26T19:58:10.542Z,20.30
2018-11-26T20:00:40.025Z,18.23
2018-11-26T20:03:19.413Z,20.67
2018-11-26T20:05:53.706Z,18.37
2018-11-26T20:08:22.776Z,17.73
2018-11-26T20:10:51.887Z,18.40
2018-11-26T20:13:20.943Z,19.77
2018-11-26T20:15:50.475Z,18.27
2018-11-26T20:18:19.530Z,20.90
2018-11-26T20:20:48.615Z,22.20
2018-11-26T20:23:17.645Z,22.50
2018-11-26T20:25:46.940Z,22.10
2018-11-26T20:28:15.957Z,19.10
2018-11-26T20:30:45.066Z,22.23
2018-11-26T20:33:14.437Z,21.17
2018-11-26T20:35:43.595Z,21.40
2018-11-26T20:38:13.893Z,21.33
2018-11-26T20:40:43.001Z,21.23
2018-11-26T20:43:13.159Z,22.67
2018-11-26T20:45:43.723Z,22.27
2018-11-26T20:48:12.775Z,21.70
2018-11-26T20:50:43.992Z,18.73
2018-11-26T20:53:13.042Z,20.80
2018-11-26T20:55:42.124Z,23.53
2018-11-26T20:58:11.158Z,19.10
2018-11-26T21:00:41.231Z,17.40
2018-11-26T21:03:11.096Z,19.03
2018-11-26T21:05:41.223Z,18.67
2018-11-26T21:08:10.288Z,18.90
2018-11-26T21:10:39.552Z,16.93
2018-11-26T21:13:09.114Z,19.13
2018-11-26T21:15:38.139Z,19.23
2018-11-26T21:18:08.964Z,17.83
2018-11-26T21:20:40.729Z,19.10
2018-11-26T21:23:11.501Z,17.70
2018-11-26T21:25:40.918Z,18.40
2018-11-26T21:28:09.960Z,18.07
2018-11-26T21:30:39.014Z,19.30
2018-11-26T21:33:08.054Z,19.23
2018-11-26T21:35:37.137Z,20.57
2018-11-26T21:38:07.691Z,26.20
2018-11-26T21:40:36.962Z,16.53
2018-11-26T21:43:06.463Z,22.00
2018-11-26T21:45:41.292Z,21.03
2018-11-26T21:48:10.430Z,19.20
2018-11-26T21:50:39.442Z,26.47
2018-11-26T21:53:08.764Z,20.87
2018-11-26T21:55:37.854Z,20.87
2018-11-26T21:58:07.330Z,22.60
2018-11-26T22:00:37.373Z,21.70
2018-11-26T22:03:09.995Z,22.43
2018-11-26T22:05:40.152Z,27.87
2018-11-26T22:08:09.990Z,26.67
2018-11-26T22:10:41.186Z,25.23
2018-11-26T22:13:11.620Z,28.13
2018-11-26T22:15:41.025Z,27.93
2018-11-26T22:18:10.302Z,29.10
2018-11-26T22:20:39.392Z,30.47
2018-11-26T22:23:09.210Z,31.97
2018-11-26T22:25:38.254Z,28.27
2018-11-26T22:28:09.101Z,24.10
2018-11-26T22:30:39.046Z,25.63
2018-11-26T22:33:09.082Z,26.83
2018-11-26T22:35:37.265Z,31.67
2018-11-26T22:38:06.720Z,28.13
2018-11-26T22:40:35.785Z,29.70
2018-11-26T22:43:05.136Z,26.07
2018-11-26T22:45:34.882Z,26.97
2018-11-26T22:48:12.604Z,34.90
2018-11-26T22:50:42.863Z,30.23
2018-11-26T22:53:12.261Z,28.43
2018-11-26T22:55:41.527Z,30.73
2018-11-26T22:58:12.797Z,34.97
2018-11-26T23:00:45.527Z,32.27
2018-11-26T23:03:16.121Z,34.13
2018-11-26T23:05:45.201Z,33.93
2018-11-26T23:08:14.378Z,34.33
2018-11-26T23:10:43.479Z,39.93
2018-11-26T23:13:12.723Z,39.40
2018-11-26T23:15:41.839Z,42.90
2018-11-26T23:18:10.901Z,48.43
2018-11-26T23:20:39.995Z,49.13
2018-11-26T23:23:09.089Z,44.60
2018-11-26T23:25:38.233Z,50.13
2018-11-26T23:28:07.283Z,45.03
2018-11-26T23:30:36.386Z,43.40
2018-11-26T23:33:06.757Z,52.40
2018-11-26T23:35:35.933Z,48.53
2018-11-26T23:38:05.496Z,49.20
2018-11-26T23:40:35.177Z,57.60
2018-11-26T23:43:05.167Z,51.40
2018-11-26T23:45:34.220Z,53.97
2018-11-26T23:48:03.344Z,57.00
2018-11-26T23:50:32.811Z,58.97
2018-11-26T23:53:01.833Z,55.30
2018-11-26T23:55:31.262Z,60.87
2018-11-26T23:58:00.346Z,63.40
